Airfield :
LOGIN :

Register | Disclaimer

   EN    FR    IT 

 










Legend :    VFR   Marginal VFR   IFR   Intensive IFR   Very Intensive IFR
Visi :
Ceiling :
>= 8 km
>= 3000ft
5 to 8 km
1000 to 3000 ft
1500m to 5 km
500 to 1000 ft
800 to 1500m
200 to 500 ft
< 800m
< 200 ft
Symbols :   Thunderstorms  Fog  Heavy snow  Heavy precipitations  Wind > 20 kt
SIGMETs :     Misc.  Thunderstorms  Icing  Turbulence  Mountain Waves  Volcanic Ashes







- Airport Elevation : 84 ft
- Download approach charts


LFBC - Cazaux

CURRENT METAR :
  • 240130Z AUTO 00000KT 0400 0250 R24/0800N FG VV/// 08/07 Q1027

EXPIRED METARs :
  • 240100Z AUTO 19002KT 0550 0350 R24/0800N FG VV/// 07/07 Q1027
  • 240030Z AUTO VRB01KT 0500 0450 R24/0500N FG VV/// 07/07 Q1028
  • 240000Z AUTO VRB02KT 0550 R24/0900U FG VV/// 08/08 Q1028
  • 232330Z AUTO 00000KT 0600 0500 R24/0750U FG VV/// 09/09 Q1028
  • 232300Z AUTO 00000KT 0700 0500 R24/1100U FG VV/// 10/10 Q1028

TAF TAF LFBC
Valid from the 23 at 21:00 until the 24 at 21:00 UTC


232000Z 2321/2421 19003KT 6000 SCT050
BECMG 2321/2323 0500 FG VV///
BECMG 2409/2411 8000 NSW FEW005
TEMPO 2413/2416 25012KT
No reported NOTAMs for that airfield.



MET'MAP, your aeronautical weather chart ! - Copyright ORBIFLY December 2007 - Disclaimer

ORBIFLY MET'MAP TEAM :

Programming & Development : Alexandra Zaïnal
Concept & Development : Baudouin d'Aumeries
Co-Development & Prog : Marc-Olivier Méhu
Technical & hardware support : Manuel Goepfert

Contact : metmap@orbifly.com




SOURCES & CREDITS :

   NOAA